Garden City, IA

2:00 PM CDT on September 02, 2014 (GMT -0500)
Prairie Ridge | Change Station
CLOSE
Current Station
Personal Weather Station
Location: Story City, IA
Elevation: 1010 ft
Nearby Weather Stations

Elev 1010 ft 42.19 °N, 93.58 °W | Updated 20 seconds ago

Clear
Clear
81.0 °F
Feels Like 80 °F
N
4.5
Wind Variable Wind from West
Gusts 6.9 mph

Today
High -- | Low -- °F
--% Chance of Precip.
Yesterday
High -- | Low -- °F
Precip. -- in
6:39 AM 7:45 PM
First Quarter, 54% visible
Pressure 29.97 in
Visibility 10.0 miles
Clouds Clear
Heat Index 80 °F
Dew Point 51 °F
Humidity 35%
Rainfall 0.01 in
Snow Depth Not available.
UV 9 out of 12
Pollen 10.10 out of 12
Air Quality Not available.
Flu Activity Not available.
METAR KIFA 021835Z AUTO 24006KT 10SM CLR 24/14 A2997 RMK AO2 T02360136

More Conditions Fewer Conditions

Pressure 29.97 in
Visibility 10.0 miles
Clouds Clear
Heat Index 80 °F
Dew Point 51 °F
Humidity 35%
Rainfall 0.01 in
Snow Depth Not available.
UV 9 out of 12
Pollen 10.10 out of 12
Air Quality Not available.
Flu Activity Not available.
METAR KIFA 021835Z AUTO 24006KT 10SM CLR 24/14 A2997 RMK AO2 T02360136

More Conditions Fewer Conditions

10-Day Weather Forecast

Almanac

Astronomy

Sep. 02, 2014 Rise Set
Actual Time 6:39 AM CDT 7:45 PM CDT
Civil Twilight 6:11 AM CDT 8:14 PM CDT
Nautical Twilight 5:36 AM CDT 8:48 PM CDT
Astronomical Twilight 5:00 AM CDT 9:24 PM CDT
Moon 2:32 PM CDT No Moon Set
Length of Visible Light 14h 03m
Length of Day
13h 05m
Tomorrow will be 2m 44s shorter.
First Quarter, 54% of the Moon is Illuminated
Today
First Quarter
Sep 8
Full
Sep 15
Last Quarter
Sep 24
New
Oct 1
First Quarter

Today's Extremes

State Highs State Lows

Community

WunderPhotos

Upload Photos

1,749,743 photos uploaded!

WunderBlogs® & News

By Dr. Jeff Masters
Director of Meteorology, Weather Underground
By Kari Strenfel
Meteorologist, Weather Underground
By Christopher C. Burt
Weather Historian, Weather Underground
September 2, 2014
September 2, 2014
September 2, 2014

Nearby

Snow Depth

Station Depth Elevation
No new snow has been reported.

Earthquake Activity

City Distance Mag. Time & Date
No recent earthquake activity has been reported nearby.
Minimum magnitude displayed is 2.5.

Coastal Water Temperatures

Place Temperature
No Stations Reporting

Nearby Weather Stations